sensor_id;sensor_type;location;lat;lon;timestamp;temperature;humidity
10384;DHT22;5238;43.508;4.980;2023-02-07T00:00:31;6.50;91.30
10384;DHT22;5238;43.508;4.980;2023-02-07T00:02:59;6.60;91.30
10384;DHT22;5238;43.508;4.980;2023-02-07T00:05:27;6.60;91.30
10384;DHT22;5238;43.508;4.980;2023-02-07T00:08:02;6.60;91.30
10384;DHT22;5238;43.508;4.980;2023-02-07T00:10:41;6.70;91.30
10384;DHT22;5238;43.508;4.980;2023-02-07T00:13:22;6.70;91.30
10384;DHT22;5238;43.508;4.980;2023-02-07T00:15:56;6.70;91.30
10384;DHT22;5238;43.508;4.980;2023-02-07T00:18:32;6.70;91.30
10384;DHT22;5238;43.508;4.980;2023-02-07T00:21:05;6.80;91.30
10384;DHT22;5238;43.508;4.980;2023-02-07T00:23:41;6.80;91.30
10384;DHT22;5238;43.508;4.980;2023-02-07T00:26:13;6.80;91.30
10384;DHT22;5238;43.508;4.980;2023-02-07T00:28:43;6.90;91.30
10384;DHT22;5238;43.508;4.980;2023-02-07T00:34:01;7.00;91.30
10384;DHT22;5238;43.508;4.980;2023-02-07T00:36:31;7.00;91.30
10384;DHT22;5238;43.508;4.980;2023-02-07T00:39:02;7.10;91.30
10384;DHT22;5238;43.508;4.980;2023-02-07T00:41:33;7.10;91.30
10384;DHT22;5238;43.508;4.980;2023-02-07T00:44:01;7.20;91.30
10384;DHT22;5238;43.508;4.980;2023-02-07T00:46:30;7.20;91.30
10384;DHT22;5238;43.508;4.980;2023-02-07T00:48:57;7.20;91.30
10384;DHT22;5238;43.508;4.980;2023-02-07T00:51:27;7.30;91.30
10384;DHT22;5238;43.508;4.980;2023-02-07T00:53:55;7.30;91.30
10384;DHT22;5238;43.508;4.980;2023-02-07T00:56:25;7.30;91.30
10384;DHT22;5238;43.508;4.980;2023-02-07T00:58:55;7.30;91.30
10384;DHT22;5238;43.508;4.980;2023-02-07T01:01:25;7.30;91.30
10384;DHT22;5238;43.508;4.980;2023-02-07T01:03:53;7.30;91.30
10384;DHT22;5238;43.508;4.980;2023-02-07T01:06:29;7.30;91.30
10384;DHT22;5238;43.508;4.980;2023-02-07T01:08:59;7.40;91.30
10384;DHT22;5238;43.508;4.980;2023-02-07T01:11:27;7.40;91.30
10384;DHT22;5238;43.508;4.980;2023-02-07T01:13:57;7.40;91.30
10384;DHT22;5238;43.508;4.980;2023-02-07T01:16:27;7.40;91.30
10384;DHT22;5238;43.508;4.980;2023-02-07T01:18:55;7.40;91.30
10384;DHT22;5238;43.508;4.980;2023-02-07T01:21:24;7.40;91.30
10384;DHT22;5238;43.508;4.980;2023-02-07T01:23:52;7.50;91.30
10384;DHT22;5238;43.508;4.980;2023-02-07T01:26:24;7.50;91.30
10384;DHT22;5238;43.508;4.980;2023-02-07T01:29:01;7.50;91.30
10384;DHT22;5238;43.508;4.980;2023-02-07T01:31:31;7.50;91.30
10384;DHT22;5238;43.508;4.980;2023-02-07T01:34:01;7.60;91.30
10384;DHT22;5238;43.508;4.980;2023-02-07T01:36:36;7.60;91.30
10384;DHT22;5238;43.508;4.980;2023-02-07T01:39:04;7.60;91.30
10384;DHT22;5238;43.508;4.980;2023-02-07T01:41:32;7.60;91.30
10384;DHT22;5238;43.508;4.980;2023-02-07T01:47:05;7.70;91.30
10384;DHT22;5238;43.508;4.980;2023-02-07T01:49:43;7.70;91.30
10384;DHT22;5238;43.508;4.980;2023-02-07T01:52:21;7.70;91.30
10384;DHT22;5238;43.508;4.980;2023-02-07T01:55:02;7.70;91.30
10384;DHT22;5238;43.508;4.980;2023-02-07T01:57:36;7.70;91.30
10384;DHT22;5238;43.508;4.980;2023-02-07T02:00:06;7.70;91.30
10384;DHT22;5238;43.508;4.980;2023-02-07T02:02:39;7.80;91.30
10384;DHT22;5238;43.508;4.980;2023-02-07T02:05:12;7.80;91.30
10384;DHT22;5238;43.508;4.980;2023-02-07T02:07:41;7.80;91.30
10384;DHT22;5238;43.508;4.980;2023-02-07T02:10:14;7.90;91.30
10384;DHT22;5238;43.508;4.980;2023-02-07T02:12:56;7.90;91.30
10384;DHT22;5238;43.508;4.980;2023-02-07T02:15:56;7.90;91.30
10384;DHT22;5238;43.508;4.980;2023-02-07T02:18:53;8.00;91.30
10384;DHT22;5238;43.508;4.980;2023-02-07T02:21:44;8.10;91.30
10384;DHT22;5238;43.508;4.980;2023-02-07T02:27:59;8.10;91.30
10384;DHT22;5238;43.508;4.980;2023-02-07T02:30:54;8.20;91.30
10384;DHT22;5238;43.508;4.980;2023-02-07T02:33:42;8.20;91.30
10384;DHT22;5238;43.508;4.980;2023-02-07T02:36:28;8.20;91.30
10384;DHT22;5238;43.508;4.980;2023-02-07T02:39:02;8.30;91.30
10384;DHT22;5238;43.508;4.980;2023-02-07T02:41:48;8.30;91.30
10384;DHT22;5238;43.508;4.980;2023-02-07T02:44:29;8.30;91.30
10384;DHT22;5238;43.508;4.980;2023-02-07T02:47:06;8.30;91.30
10384;DHT22;5238;43.508;4.980;2023-02-07T02:49:36;8.30;91.30
10384;DHT22;5238;43.508;4.980;2023-02-07T02:52:15;8.30;91.30
10384;DHT22;5238;43.508;4.980;2023-02-07T02:54:47;8.30;91.30
10384;DHT22;5238;43.508;4.980;2023-02-07T02:57:40;8.30;91.30
10384;DHT22;5238;43.508;4.980;2023-02-07T03:00:37;8.20;91.30
10384;DHT22;5238;43.508;4.980;2023-02-07T03:06:14;8.20;91.30
10384;DHT22;5238;43.508;4.980;2023-02-07T03:08:59;8.30;91.30
10384;DHT22;5238;43.508;4.980;2023-02-07T03:11:32;8.30;91.30
10384;DHT22;5238;43.508;4.980;2023-02-07T03:14:12;8.30;91.30
10384;DHT22;5238;43.508;4.980;2023-02-07T03:16:50;8.30;91.30
10384;DHT22;5238;43.508;4.980;2023-02-07T03:19:31;8.30;91.30
10384;DHT22;5238;43.508;4.980;2023-02-07T03:22:18;8.30;91.30
10384;DHT22;5238;43.508;4.980;2023-02-07T03:24:56;8.30;91.30
10384;DHT22;5238;43.508;4.980;2023-02-07T03:27:27;8.30;91.30
10384;DHT22;5238;43.508;4.980;2023-02-07T03:29:58;8.30;91.30
10384;DHT22;5238;43.508;4.980;2023-02-07T03:32:33;8.30;91.30
10384;DHT22;5238;43.508;4.980;2023-02-07T03:35:05;8.30;91.30
10384;DHT22;5238;43.508;4.980;2023-02-07T03:37:47;8.30;91.30
10384;DHT22;5238;43.508;4.980;2023-02-07T03:40:18;8.20;91.30
10384;DHT22;5238;43.508;4.980;2023-02-07T03:43:03;8.20;91.30
10384;DHT22;5238;43.508;4.980;2023-02-07T03:45:33;8.20;91.30
10384;DHT22;5238;43.508;4.980;2023-02-07T03:48:05;8.30;91.30
10384;DHT22;5238;43.508;4.980;2023-02-07T03:50:32;8.30;91.30
10384;DHT22;5238;43.508;4.980;2023-02-07T03:53:01;8.30;91.30
10384;DHT22;5238;43.508;4.980;2023-02-07T03:55:36;8.40;91.30
10384;DHT22;5238;43.508;4.980;2023-02-07T03:58:04;8.50;91.30
10384;DHT22;5238;43.508;4.980;2023-02-07T04:00:45;8.60;91.30
10384;DHT22;5238;43.508;4.980;2023-02-07T04:03:12;8.70;91.30
10384;DHT22;5238;43.508;4.980;2023-02-07T04:05:43;8.80;91.30
10384;DHT22;5238;43.508;4.980;2023-02-07T04:08:13;8.90;91.30
10384;DHT22;5238;43.508;4.980;2023-02-07T04:10:41;8.90;91.30
10384;DHT22;5238;43.508;4.980;2023-02-07T04:13:23;9.00;91.30
10384;DHT22;5238;43.508;4.980;2023-02-07T04:15:52;9.10;91.30
10384;DHT22;5238;43.508;4.980;2023-02-07T04:18:29;9.10;91.30
10384;DHT22;5238;43.508;4.980;2023-02-07T04:21:01;9.20;91.30
10384;DHT22;5238;43.508;4.980;2023-02-07T04:23:37;9.20;91.30
10384;DHT22;5238;43.508;4.980;2023-02-07T04:26:09;9.20;91.30
10384;DHT22;5238;43.508;4.980;2023-02-07T04:28:38;9.30;91.30
10384;DHT22;5238;43.508;4.980;2023-02-07T04:31:05;9.30;91.30
10384;DHT22;5238;43.508;4.980;2023-02-07T04:33:32;9.30;91.30
10384;DHT22;5238;43.508;4.980;2023-02-07T04:36:01;9.30;91.30
10384;DHT22;5238;43.508;4.980;2023-02-07T04:38:34;9.30;91.30
10384;DHT22;5238;43.508;4.980;2023-02-07T04:41:05;9.30;91.30
10384;DHT22;5238;43.508;4.980;2023-02-07T04:43:35;9.40;91.30
10384;DHT22;5238;43.508;4.980;2023-02-07T04:46:06;9.40;91.30
10384;DHT22;5238;43.508;4.980;2023-02-07T04:48:35;9.40;91.30
10384;DHT22;5238;43.508;4.980;2023-02-07T04:51:11;9.40;91.30
10384;DHT22;5238;43.508;4.980;2023-02-07T04:53:40;9.40;91.30
10384;DHT22;5238;43.508;4.980;2023-02-07T04:56:09;9.40;91.30
10384;DHT22;5238;43.508;4.980;2023-02-07T04:58:44;9.40;91.30
10384;DHT22;5238;43.508;4.980;2023-02-07T05:01:12;9.40;91.30
10384;DHT22;5238;43.508;4.980;2023-02-07T05:03:40;9.40;91.30
10384;DHT22;5238;43.508;4.980;2023-02-07T05:06:07;9.40;91.30
10384;DHT22;5238;43.508;4.980;2023-02-07T05:08:39;9.40;91.30
10384;DHT22;5238;43.508;4.980;2023-02-07T05:11:16;9.40;91.30
10384;DHT22;5238;43.508;4.980;2023-02-07T05:13:52;9.40;91.30
10384;DHT22;5238;43.508;4.980;2023-02-07T05:16:19;9.50;91.30
10384;DHT22;5238;43.508;4.980;2023-02-07T05:18:54;9.50;91.30
10384;DHT22;5238;43.508;4.980;2023-02-07T05:21:21;9.50;91.30
10384;DHT22;5238;43.508;4.980;2023-02-07T05:23:50;9.50;91.30
10384;DHT22;5238;43.508;4.980;2023-02-07T05:26:17;9.50;91.30
10384;DHT22;5238;43.508;4.980;2023-02-07T05:28:44;9.50;91.30
10384;DHT22;5238;43.508;4.980;2023-02-07T05:31:11;9.40;91.30
10384;DHT22;5238;43.508;4.980;2023-02-07T05:33:38;9.40;91.30
10384;DHT22;5238;43.508;4.980;2023-02-07T05:36:05;9.50;91.30
10384;DHT22;5238;43.508;4.980;2023-02-07T05:38:32;9.50;91.30
10384;DHT22;5238;43.508;4.980;2023-02-07T05:41:01;9.40;91.30
10384;DHT22;5238;43.508;4.980;2023-02-07T05:43:28;9.40;91.30
10384;DHT22;5238;43.508;4.980;2023-02-07T05:45:55;9.40;91.30
10384;DHT22;5238;43.508;4.980;2023-02-07T05:48:22;9.40;91.30
10384;DHT22;5238;43.508;4.980;2023-02-07T05:50:50;9.40;91.30
10384;DHT22;5238;43.508;4.980;2023-02-07T05:53:17;9.50;91.30
10384;DHT22;5238;43.508;4.980;2023-02-07T05:55:44;9.40;91.30
10384;DHT22;5238;43.508;4.980;2023-02-07T05:58:12;9.40;91.30
10384;DHT22;5238;43.508;4.980;2023-02-07T06:00:39;9.40;91.30
10384;DHT22;5238;43.508;4.980;2023-02-07T06:03:06;9.40;91.30
10384;DHT22;5238;43.508;4.980;2023-02-07T06:05:33;9.50;91.30
10384;DHT22;5238;43.508;4.980;2023-02-07T06:08:01;9.50;91.30
10384;DHT22;5238;43.508;4.980;2023-02-07T06:10:28;9.50;91.30
10384;DHT22;5238;43.508;4.980;2023-02-07T06:12:55;9.50;91.30
10384;DHT22;5238;43.508;4.980;2023-02-07T06:15:23;9.50;91.30
10384;DHT22;5238;43.508;4.980;2023-02-07T06:17:50;9.50;91.30
10384;DHT22;5238;43.508;4.980;2023-02-07T06:20:17;9.50;91.30
10384;DHT22;5238;43.508;4.980;2023-02-07T06:22:44;9.50;91.30
10384;DHT22;5238;43.508;4.980;2023-02-07T06:25:11;9.50;91.30
10384;DHT22;5238;43.508;4.980;2023-02-07T06:27:39;9.50;91.30
10384;DHT22;5238;43.508;4.980;2023-02-07T06:30:07;9.50;91.30
10384;DHT22;5238;43.508;4.980;2023-02-07T06:32:36;9.50;91.30
10384;DHT22;5238;43.508;4.980;2023-02-07T06:35:04;9.40;91.30
10384;DHT22;5238;43.508;4.980;2023-02-07T06:37:35;9.40;91.30
10384;DHT22;5238;43.508;4.980;2023-02-07T06:40:03;9.40;91.30
10384;DHT22;5238;43.508;4.980;2023-02-07T06:42:30;9.40;91.30
10384;DHT22;5238;43.508;4.980;2023-02-07T06:44:57;9.40;91.30
10384;DHT22;5238;43.508;4.980;2023-02-07T06:47:24;9.30;91.30
10384;DHT22;5238;43.508;4.980;2023-02-07T06:49:53;9.30;91.30
10384;DHT22;5238;43.508;4.980;2023-02-07T06:52:20;9.30;91.30
10384;DHT22;5238;43.508;4.980;2023-02-07T06:54:47;9.30;91.30
10384;DHT22;5238;43.508;4.980;2023-02-07T06:57:24;9.20;91.30
10384;DHT22;5238;43.508;4.980;2023-02-07T06:59:55;9.20;91.30
10384;DHT22;5238;43.508;4.980;2023-02-07T07:02:32;9.20;91.30
10384;DHT22;5238;43.508;4.980;2023-02-07T07:05:09;9.10;91.30
10384;DHT22;5238;43.508;4.980;2023-02-07T07:07:36;9.10;91.30
10384;DHT22;5238;43.508;4.980;2023-02-07T07:10:11;9.10;91.30
10384;DHT22;5238;43.508;4.980;2023-02-07T07:12:38;9.10;91.30
10384;DHT22;5238;43.508;4.980;2023-02-07T07:15:09;9.10;91.30
10384;DHT22;5238;43.508;4.980;2023-02-07T07:17:38;9.10;91.30
10384;DHT22;5238;43.508;4.980;2023-02-07T07:20:11;9.10;91.30
10384;DHT22;5238;43.508;4.980;2023-02-07T07:22:46;9.10;91.30
10384;DHT22;5238;43.508;4.980;2023-02-07T07:25:15;9.10;91.30
10384;DHT22;5238;43.508;4.980;2023-02-07T07:27:45;9.10;91.30
10384;DHT22;5238;43.508;4.980;2023-02-07T07:30:20;9.10;91.30
10384;DHT22;5238;43.508;4.980;2023-02-07T07:32:53;9.10;91.30
10384;DHT22;5238;43.508;4.980;2023-02-07T07:35:26;9.10;91.30
10384;DHT22;5238;43.508;4.980;2023-02-07T07:37:55;9.10;91.30
10384;DHT22;5238;43.508;4.980;2023-02-07T07:40:22;9.10;91.30
10384;DHT22;5238;43.508;4.980;2023-02-07T07:42:57;9.10;91.30
10384;DHT22;5238;43.508;4.980;2023-02-07T07:45:28;9.10;91.30
10384;DHT22;5238;43.508;4.980;2023-02-07T07:48:00;9.20;91.30
10384;DHT22;5238;43.508;4.980;2023-02-07T07:50:33;9.20;91.30
10384;DHT22;5238;43.508;4.980;2023-02-07T07:53:01;9.20;91.30
10384;DHT22;5238;43.508;4.980;2023-02-07T07:55:28;9.20;91.30
10384;DHT22;5238;43.508;4.980;2023-02-07T07:57:59;9.20;91.30
10384;DHT22;5238;43.508;4.980;2023-02-07T08:00:32;9.30;91.30
10384;DHT22;5238;43.508;4.980;2023-02-07T08:03:04;9.30;91.30
10384;DHT22;5238;43.508;4.980;2023-02-07T08:05:35;9.30;91.30
10384;DHT22;5238;43.508;4.980;2023-02-07T08:08:06;9.30;91.30
10384;DHT22;5238;43.508;4.980;2023-02-07T08:10:35;9.40;91.30
10384;DHT22;5238;43.508;4.980;2023-02-07T08:13:03;9.40;91.30
10384;DHT22;5238;43.508;4.980;2023-02-07T08:15:44;9.40;91.30
10384;DHT22;5238;43.508;4.980;2023-02-07T08:18:19;9.50;91.30
10384;DHT22;5238;43.508;4.980;2023-02-07T08:20:58;9.50;91.30
10384;DHT22;5238;43.508;4.980;2023-02-07T08:23:28;9.50;91.30
10384;DHT22;5238;43.508;4.980;2023-02-07T08:25:56;9.60;91.30
10384;DHT22;5238;43.508;4.980;2023-02-07T08:28:24;9.60;91.30
10384;DHT22;5238;43.508;4.980;2023-02-07T08:30:58;9.70;91.30
10384;DHT22;5238;43.508;4.980;2023-02-07T08:33:39;9.80;91.30
10384;DHT22;5238;43.508;4.980;2023-02-07T08:36:22;9.90;91.30
10384;DHT22;5238;43.508;4.980;2023-02-07T08:38:50;10.00;91.30
10384;DHT22;5238;43.508;4.980;2023-02-07T08:41:17;10.10;91.30
10384;DHT22;5238;43.508;4.980;2023-02-07T08:43:44;10.10;91.30
10384;DHT22;5238;43.508;4.980;2023-02-07T08:46:11;10.20;91.30
10384;DHT22;5238;43.508;4.980;2023-02-07T08:48:39;10.20;91.30
10384;DHT22;5238;43.508;4.980;2023-02-07T08:51:20;10.30;91.30
10384;DHT22;5238;43.508;4.980;2023-02-07T08:53:53;10.30;91.30
10384;DHT22;5238;43.508;4.980;2023-02-07T08:56:20;10.60;91.30
10384;DHT22;5238;43.508;4.980;2023-02-07T08:58:47;10.80;91.30
10384;DHT22;5238;43.508;4.980;2023-02-07T09:01:14;10.90;91.30
10384;DHT22;5238;43.508;4.980;2023-02-07T09:03:41;11.00;91.30
10384;DHT22;5238;43.508;4.980;2023-02-07T09:06:08;11.00;91.30
10384;DHT22;5238;43.508;4.980;2023-02-07T09:08:37;11.20;91.30
10384;DHT22;5238;43.508;4.980;2023-02-07T09:11:04;11.50;91.30
10384;DHT22;5238;43.508;4.980;2023-02-07T09:13:31;11.80;91.30
10384;DHT22;5238;43.508;4.980;2023-02-07T09:15:58;12.10;91.30
10384;DHT22;5238;43.508;4.980;2023-02-07T09:18:25;12.40;91.30
10384;DHT22;5238;43.508;4.980;2023-02-07T09:20:57;12.60;91.30
10384;DHT22;5238;43.508;4.980;2023-02-07T09:23:25;12.90;91.30
10384;DHT22;5238;43.508;4.980;2023-02-07T09:26:13;13.10;91.30
10384;DHT22;5238;43.508;4.980;2023-02-07T09:28:41;13.30;91.30
10384;DHT22;5238;43.508;4.980;2023-02-07T09:31:22;13.50;91.30
10384;DHT22;5238;43.508;4.980;2023-02-07T09:33:49;13.30;91.30
10384;DHT22;5238;43.508;4.980;2023-02-07T09:36:18;13.00;91.30
10384;DHT22;5238;43.508;4.980;2023-02-07T09:38:46;12.80;91.30
10384;DHT22;5238;43.508;4.980;2023-02-07T09:41:23;12.60;91.30
10384;DHT22;5238;43.508;4.980;2023-02-07T09:44:05;12.40;91.30
10384;DHT22;5238;43.508;4.980;2023-02-07T09:46:48;12.30;91.30
10384;DHT22;5238;43.508;4.980;2023-02-07T09:49:34;12.20;91.30
10384;DHT22;5238;43.508;4.980;2023-02-07T09:52:04;12.20;91.30
10384;DHT22;5238;43.508;4.980;2023-02-07T09:54:35;12.30;91.30
10384;DHT22;5238;43.508;4.980;2023-02-07T09:57:09;12.40;91.30
10384;DHT22;5238;43.508;4.980;2023-02-07T09:59:47;12.40;91.30
10384;DHT22;5238;43.508;4.980;2023-02-07T10:02:22;12.50;91.30
10384;DHT22;5238;43.508;4.980;2023-02-07T10:04:56;12.40;91.30
10384;DHT22;5238;43.508;4.980;2023-02-07T10:07:29;12.40;91.30
10384;DHT22;5238;43.508;4.980;2023-02-07T10:09:57;12.40;91.30
10384;DHT22;5238;43.508;4.980;2023-02-07T10:12:47;12.40;91.30
10384;DHT22;5238;43.508;4.980;2023-02-07T10:15:32;12.50;91.30
10384;DHT22;5238;43.508;4.980;2023-02-07T10:18:30;12.50;91.30
10384;DHT22;5238;43.508;4.980;2023-02-07T10:21:04;12.60;91.30
10384;DHT22;5238;43.508;4.980;2023-02-07T10:23:48;12.80;91.30
10384;DHT22;5238;43.508;4.980;2023-02-07T10:26:30;13.00;91.30
10384;DHT22;5238;43.508;4.980;2023-02-07T10:29:29;13.40;91.30
10384;DHT22;5238;43.508;4.980;2023-02-07T10:32:11;13.70;91.30
10384;DHT22;5238;43.508;4.980;2023-02-07T10:34:44;13.80;91.30
10384;DHT22;5238;43.508;4.980;2023-02-07T10:37:23;13.90;91.30
10384;DHT22;5238;43.508;4.980;2023-02-07T10:40:12;14.00;91.30
10384;DHT22;5238;43.508;4.980;2023-02-07T10:42:42;14.00;91.30
10384;DHT22;5238;43.508;4.980;2023-02-07T10:45:14;14.10;91.30
10384;DHT22;5238;43.508;4.980;2023-02-07T10:47:41;14.30;91.30
10384;DHT22;5238;43.508;4.980;2023-02-07T10:50:13;14.40;91.30
10384;DHT22;5238;43.508;4.980;2023-02-07T10:52:50;14.40;91.30
10384;DHT22;5238;43.508;4.980;2023-02-07T10:55:32;14.50;91.30
10384;DHT22;5238;43.508;4.980;2023-02-07T10:58:02;14.50;91.30
10384;DHT22;5238;43.508;4.980;2023-02-07T11:00:39;14.60;91.30
10384;DHT22;5238;43.508;4.980;2023-02-07T11:03:16;14.60;91.30
10384;DHT22;5238;43.508;4.980;2023-02-07T11:05:55;14.60;91.30
10384;DHT22;5238;43.508;4.980;2023-02-07T11:08:37;14.60;91.30
10384;DHT22;5238;43.508;4.980;2023-02-07T11:11:27;14.50;91.30
10384;DHT22;5238;43.508;4.980;2023-02-07T11:14:02;14.50;91.30
10384;DHT22;5238;43.508;4.980;2023-02-07T11:16:34;14.40;91.30
10384;DHT22;5238;43.508;4.980;2023-02-07T11:19:06;14.30;91.30
10384;DHT22;5238;43.508;4.980;2023-02-07T11:21:42;14.30;91.30
10384;DHT22;5238;43.508;4.980;2023-02-07T11:24:15;14.10;91.30
10384;DHT22;5238;43.508;4.980;2023-02-07T11:26:55;14.10;91.30
10384;DHT22;5238;43.508;4.980;2023-02-07T11:29:46;14.00;91.30
10384;DHT22;5238;43.508;4.980;2023-02-07T11:32:19;13.90;91.30
10384;DHT22;5238;43.508;4.980;2023-02-07T11:34:51;13.80;91.30
10384;DHT22;5238;43.508;4.980;2023-02-07T11:37:34;13.80;91.30
10384;DHT22;5238;43.508;4.980;2023-02-07T11:40:35;13.70;91.30
10384;DHT22;5238;43.508;4.980;2023-02-07T11:43:09;13.60;91.30
10384;DHT22;5238;43.508;4.980;2023-02-07T11:45:40;13.60;91.30
10384;DHT22;5238;43.508;4.980;2023-02-07T11:48:18;13.50;91.30
10384;DHT22;5238;43.508;4.980;2023-02-07T11:50:56;13.50;91.30
10384;DHT22;5238;43.508;4.980;2023-02-07T11:53:35;13.40;91.30
10384;DHT22;5238;43.508;4.980;2023-02-07T11:56:23;13.40;91.30
10384;DHT22;5238;43.508;4.980;2023-02-07T11:58:59;13.40;91.30
10384;DHT22;5238;43.508;4.980;2023-02-07T12:01:32;13.40;91.30
10384;DHT22;5238;43.508;4.980;2023-02-07T12:04:11;13.40;91.30
10384;DHT22;5238;43.508;4.980;2023-02-07T12:06:52;13.40;91.30
10384;DHT22;5238;43.508;4.980;2023-02-07T12:09:48;13.40;91.30
10384;DHT22;5238;43.508;4.980;2023-02-07T12:12:20;13.30;91.30
10384;DHT22;5238;43.508;4.980;2023-02-07T12:14:59;13.20;91.30
10384;DHT22;5238;43.508;4.980;2023-02-07T12:17:34;13.20;91.30
10384;DHT22;5238;43.508;4.980;2023-02-07T12:20:12;13.20;91.30
10384;DHT22;5238;43.508;4.980;2023-02-07T12:22:52;13.20;91.30
10384;DHT22;5238;43.508;4.980;2023-02-07T12:25:34;13.10;91.30
10384;DHT22;5238;43.508;4.980;2023-02-07T12:28:14;13.10;91.30
10384;DHT22;5238;43.508;4.980;2023-02-07T12:30:48;13.10;91.30
10384;DHT22;5238;43.508;4.980;2023-02-07T12:33:27;13.10;91.30
10384;DHT22;5238;43.508;4.980;2023-02-07T12:36:13;13.10;91.30
10384;DHT22;5238;43.508;4.980;2023-02-07T12:38:46;13.10;91.30
10384;DHT22;5238;43.508;4.980;2023-02-07T12:41:36;13.00;91.30
10384;DHT22;5238;43.508;4.980;2023-02-07T12:44:21;13.00;91.30
10384;DHT22;5238;43.508;4.980;2023-02-07T12:46:59;12.90;91.30
10384;DHT22;5238;43.508;4.980;2023-02-07T12:49:46;12.90;91.30
10384;DHT22;5238;43.508;4.980;2023-02-07T12:52:34;12.90;91.30
10384;DHT22;5238;43.508;4.980;2023-02-07T12:55:14;12.90;91.30
10384;DHT22;5238;43.508;4.980;2023-02-07T12:58:03;12.90;91.30
10384;DHT22;5238;43.508;4.980;2023-02-07T13:00:54;12.90;91.30
10384;DHT22;5238;43.508;4.980;2023-02-07T13:03:41;12.90;91.30
10384;DHT22;5238;43.508;4.980;2023-02-07T13:06:25;12.90;91.30
10384;DHT22;5238;43.508;4.980;2023-02-07T13:09:11;13.00;91.30
10384;DHT22;5238;43.508;4.980;2023-02-07T13:11:51;13.00;91.30
10384;DHT22;5238;43.508;4.980;2023-02-07T13:14:33;13.00;91.30
10384;DHT22;5238;43.508;4.980;2023-02-07T13:17:28;13.00;91.30
10384;DHT22;5238;43.508;4.980;2023-02-07T13:20:32;12.90;91.30
10384;DHT22;5238;43.508;4.980;2023-02-07T13:23:14;12.90;91.30
10384;DHT22;5238;43.508;4.980;2023-02-07T13:26:04;12.90;91.30
10384;DHT22;5238;43.508;4.980;2023-02-07T13:28:42;12.90;91.30
10384;DHT22;5238;43.508;4.980;2023-02-07T13:31:32;12.90;91.30
10384;DHT22;5238;43.508;4.980;2023-02-07T13:34:12;12.90;91.30
10384;DHT22;5238;43.508;4.980;2023-02-07T13:36:45;12.90;91.30
10384;DHT22;5238;43.508;4.980;2023-02-07T13:42:13;13.00;91.30
10384;DHT22;5238;43.508;4.980;2023-02-07T13:45:04;13.00;91.30
10384;DHT22;5238;43.508;4.980;2023-02-07T13:47:48;13.00;91.30
10384;DHT22;5238;43.508;4.980;2023-02-07T13:50:37;13.00;91.30
10384;DHT22;5238;43.508;4.980;2023-02-07T13:53:20;13.00;91.30
10384;DHT22;5238;43.508;4.980;2023-02-07T13:55:59;12.90;91.30
10384;DHT22;5238;43.508;4.980;2023-02-07T13:59:00;12.90;91.30
10384;DHT22;5238;43.508;4.980;2023-02-07T14:01:57;12.90;91.30
10384;DHT22;5238;43.508;4.980;2023-02-07T14:07:32;12.90;91.30
10384;DHT22;5238;43.508;4.980;2023-02-07T14:10:02;12.90;91.30
10384;DHT22;5238;43.508;4.980;2023-02-07T14:12:38;12.90;91.30
10384;DHT22;5238;43.508;4.980;2023-02-07T14:18:42;12.80;91.30
10384;DHT22;5238;43.508;4.980;2023-02-07T14:21:24;12.80;90.90
10384;DHT22;5238;43.508;4.980;2023-02-07T14:24:18;12.70;89.00
10384;DHT22;5238;43.508;4.980;2023-02-07T14:26:59;12.70;88.00
10384;DHT22;5238;43.508;4.980;2023-02-07T14:35:33;12.60;89.60
10384;DHT22;5238;43.508;4.980;2023-02-07T14:38:21;12.70;89.70
10384;DHT22;5238;43.508;4.980;2023-02-07T14:40:56;12.70;90.10
10384;DHT22;5238;43.508;4.980;2023-02-07T14:43:33;12.70;90.80
10384;DHT22;5238;43.508;4.980;2023-02-07T14:46:26;12.70;91.20
10384;DHT22;5238;43.508;4.980;2023-02-07T14:49:20;12.70;91.30
10384;DHT22;5238;43.508;4.980;2023-02-07T14:52:01;12.70;91.30
10384;DHT22;5238;43.508;4.980;2023-02-07T14:54:39;12.60;91.30
10384;DHT22;5238;43.508;4.980;2023-02-07T14:57:27;12.60;91.30
10384;DHT22;5238;43.508;4.980;2023-02-07T15:00:17;12.60;91.30
10384;DHT22;5238;43.508;4.980;2023-02-07T15:02:58;12.60;91.30
10384;DHT22;5238;43.508;4.980;2023-02-07T15:05:36;12.50;90.40
10384;DHT22;5238;43.508;4.980;2023-02-07T15:08:14;12.60;91.30
10384;DHT22;5238;43.508;4.980;2023-02-07T15:10:55;12.50;91.30
10384;DHT22;5238;43.508;4.980;2023-02-07T15:13:26;12.50;91.30
10384;DHT22;5238;43.508;4.980;2023-02-07T15:16:14;12.50;91.30
10384;DHT22;5238;43.508;4.980;2023-02-07T15:18:44;12.50;91.30
10384;DHT22;5238;43.508;4.980;2023-02-07T15:21:20;12.50;91.30
10384;DHT22;5238;43.508;4.980;2023-02-07T15:24:00;12.50;91.30
10384;DHT22;5238;43.508;4.980;2023-02-07T15:26:32;12.40;91.30
10384;DHT22;5238;43.508;4.980;2023-02-07T15:29:27;12.40;91.30
10384;DHT22;5238;43.508;4.980;2023-02-07T15:32:19;12.40;91.30
10384;DHT22;5238;43.508;4.980;2023-02-07T15:34:52;12.30;91.30
10384;DHT22;5238;43.508;4.980;2023-02-07T15:37:26;12.30;91.30
10384;DHT22;5238;43.508;4.980;2023-02-07T15:40:06;12.30;91.30
10384;DHT22;5238;43.508;4.980;2023-02-07T15:43:02;12.30;91.30
10384;DHT22;5238;43.508;4.980;2023-02-07T15:45:37;12.20;91.30
10384;DHT22;5238;43.508;4.980;2023-02-07T15:48:43;12.20;91.30
10384;DHT22;5238;43.508;4.980;2023-02-07T15:51:25;12.20;91.30
10384;DHT22;5238;43.508;4.980;2023-02-07T15:54:05;12.10;91.30
10384;DHT22;5238;43.508;4.980;2023-02-07T15:56:56;12.10;91.30
10384;DHT22;5238;43.508;4.980;2023-02-07T15:59:40;12.10;91.30
10384;DHT22;5238;43.508;4.980;2023-02-07T16:02:22;12.10;91.30
10384;DHT22;5238;43.508;4.980;2023-02-07T16:05:20;12.00;91.30
10384;DHT22;5238;43.508;4.980;2023-02-07T16:07:57;12.00;91.30
10384;DHT22;5238;43.508;4.980;2023-02-07T16:10:34;12.00;91.30
10384;DHT22;5238;43.508;4.980;2023-02-07T16:13:23;11.90;91.30
10384;DHT22;5238;43.508;4.980;2023-02-07T16:16:16;11.90;91.30
10384;DHT22;5238;43.508;4.980;2023-02-07T16:19:06;11.90;91.30
10384;DHT22;5238;43.508;4.980;2023-02-07T16:21:39;11.80;91.30
10384;DHT22;5238;43.508;4.980;2023-02-07T16:24:17;11.80;91.30
10384;DHT22;5238;43.508;4.980;2023-02-07T16:26:55;11.70;91.30
10384;DHT22;5238;43.508;4.980;2023-02-07T16:29:25;11.70;91.30
10384;DHT22;5238;43.508;4.980;2023-02-07T16:31:57;11.70;91.30
10384;DHT22;5238;43.508;4.980;2023-02-07T16:34:33;11.60;91.30
10384;DHT22;5238;43.508;4.980;2023-02-07T16:37:14;11.60;91.30
10384;DHT22;5238;43.508;4.980;2023-02-07T16:39:41;11.50;91.30
10384;DHT22;5238;43.508;4.980;2023-02-07T16:42:25;11.50;91.30
10384;DHT22;5238;43.508;4.980;2023-02-07T16:45:00;11.50;91.30
10384;DHT22;5238;43.508;4.980;2023-02-07T16:47:27;11.40;91.30
10384;DHT22;5238;43.508;4.980;2023-02-07T16:49:57;11.40;91.30
10384;DHT22;5238;43.508;4.980;2023-02-07T16:52:25;11.30;91.30
10384;DHT22;5238;43.508;4.980;2023-02-07T16:54:52;11.30;91.30
10384;DHT22;5238;43.508;4.980;2023-02-07T16:57:21;11.20;91.30
10384;DHT22;5238;43.508;4.980;2023-02-07T16:59:48;11.20;91.30
10384;DHT22;5238;43.508;4.980;2023-02-07T17:02:19;11.10;91.30
10384;DHT22;5238;43.508;4.980;2023-02-07T17:04:46;11.10;91.30
10384;DHT22;5238;43.508;4.980;2023-02-07T17:07:13;11.10;91.30
10384;DHT22;5238;43.508;4.980;2023-02-07T17:09:41;11.00;91.30
10384;DHT22;5238;43.508;4.980;2023-02-07T17:12:10;10.90;91.30
10384;DHT22;5238;43.508;4.980;2023-02-07T17:14:39;10.90;91.30